Terminal Aerodrome Forecast
Issued by NWS Des Moines, IA

Home | Current Version | Previous Version | Text Only | Print | Product List | Glossary On
Versions: 1 2 3 4 5 6 7 8 9 10 11 12 13 14 15 16 17 18 19 20 21 22 23 24 25
000
FTUS43 KDMX 291259 AAA
TAFDSM
TAF AMD
KDSM 291259Z 2913/3012 07014G18KT 4SM -RA BR BKN009 OVC070
     FM291600 08016G24KT 4SM -SHRA BR OVC008
     FM300100 06015G23KT 3SM -SHRA BR OVC005=

USA.gov is the U.S. government's official web portal to all federal, state and local government web resources and services.